Tyler, Minnesota
Current Conditions -  °F | °C
As of 5:15 PM on Friday 28 Nov 2014 (Local Time) from KMML Reporting Station
Clear Clear  
Wind Chill: 11°   Ceiling: Unl
Heat Index: 21°   Visibility: 10mi
Dew Point: 16°   Wind: 9mph
Humidity: 80%   Direction: 110°ESE
Pressure: 29.73"   Gusts: NA
Location:  44.28°N, 96.13°W
Report Text: KMML 282315Z AUTO 11008KT 10SM CLR M06/M09 A2973 RMK AO1
Loading
Personal Weather Stations






























Interactive Weather Map New forecast layout! Learn more

10-Day Weather Forecast

Advertisements
Track Severe Weather on mobile